createdAt,value
2023-02-16T00:00:17.432Z,10.52
2023-02-16T00:02:44.074Z,15.25
2023-02-16T00:05:33.411Z,12.63
2023-02-16T00:08:00.539Z,13.52
2023-02-16T00:10:29.532Z,12.98
2023-02-16T00:13:14.653Z,12.70
2023-02-16T00:15:41.138Z,17.33
2023-02-16T00:18:18.313Z,14.52
2023-02-16T00:20:44.889Z,15.95
2023-02-16T00:23:11.267Z,15.10
2023-02-16T00:25:37.894Z,13.20
2023-02-16T00:28:05.902Z,13.82
2023-02-16T00:30:33.140Z,17.35
2023-02-16T00:32:59.538Z,15.50
2023-02-16T00:35:25.915Z,14.65
2023-02-16T00:37:52.420Z,13.18
2023-02-16T00:40:18.810Z,16.15
2023-02-16T00:42:46.432Z,16.13
2023-02-16T00:45:20.150Z,16.55
2023-02-16T00:47:47.978Z,18.90
2023-02-16T00:50:24.487Z,19.70
2023-02-16T00:52:51.010Z,17.80
2023-02-16T00:55:25.213Z,17.02
2023-02-16T00:58:10.506Z,20.60
2023-02-16T01:00:41.835Z,17.88
2023-02-16T01:03:18.659Z,20.33
2023-02-16T01:05:45.548Z,17.52
2023-02-16T01:08:32.478Z,18.35
2023-02-16T01:11:10.256Z,17.80
2023-02-16T01:13:41.345Z,22.35
2023-02-16T01:16:15.813Z,21.02
2023-02-16T01:18:42.225Z,20.90
2023-02-16T01:21:09.088Z,20.13
2023-02-16T01:23:36.385Z,18.55
2023-02-16T01:26:02.891Z,20.45
2023-02-16T01:28:29.545Z,16.65
2023-02-16T01:30:56.089Z,20.50
2023-02-16T01:33:22.645Z,18.88
2023-02-16T01:35:49.819Z,19.50
2023-02-16T01:38:18.725Z,17.20
2023-02-16T01:40:49.156Z,19.08
2023-02-16T01:43:23.274Z,17.90
2023-02-16T01:46:00.504Z,20.40
2023-02-16T01:48:30.763Z,19.38
2023-02-16T01:51:15.911Z,19.67
2023-02-16T01:53:54.562Z,20.47
2023-02-16T01:56:42.636Z,21.80
2023-02-16T01:59:15.699Z,18.95
2023-02-16T02:01:44.277Z,19.48
2023-02-16T02:04:41.152Z,20.83
2023-02-16T02:07:08.391Z,22.33
2023-02-16T02:09:41.935Z,23.95
2023-02-16T02:12:13.927Z,22.30
2023-02-16T02:14:40.547Z,22.77
2023-02-16T02:17:09.716Z,20.05
2023-02-16T02:19:45.639Z,25.30
2023-02-16T02:22:36.697Z,22.13
2023-02-16T02:25:15.131Z,28.92
2023-02-16T02:27:46.009Z,26.75
2023-02-16T02:30:31.158Z,24.08
2023-02-16T02:32:57.560Z,25.08
2023-02-16T02:35:32.547Z,27.45
2023-02-16T02:38:12.250Z,24.63
2023-02-16T02:40:50.134Z,24.60
2023-02-16T02:43:35.180Z,24.75
2023-02-16T02:46:07.907Z,26.17
2023-02-16T02:48:35.368Z,27.17
2023-02-16T02:51:20.368Z,25.40
2023-02-16T02:54:11.159Z,25.05
2023-02-16T02:56:56.806Z,25.85
2023-02-16T02:59:42.393Z,26.35
2023-02-16T03:02:09.114Z,27.30
2023-02-16T03:04:35.756Z,26.05
2023-02-16T03:07:03.123Z,26.25
2023-02-16T03:09:30.098Z,30.88
2023-02-16T03:12:16.123Z,28.60
2023-02-16T03:14:45.730Z,26.02
2023-02-16T03:17:32.610Z,28.10
2023-02-16T03:20:18.777Z,28.83
2023-02-16T03:23:04.369Z,30.92
2023-02-16T03:25:51.756Z,27.40
2023-02-16T03:28:38.198Z,26.95
2023-02-16T03:31:06.359Z,28.83
2023-02-16T03:33:33.012Z,26.75
2023-02-16T03:35:59.491Z,29.60
2023-02-16T03:38:26.339Z,27.95
2023-02-16T03:40:52.947Z,30.60
2023-02-16T03:43:19.324Z,29.83
2023-02-16T03:45:45.864Z,29.38
2023-02-16T03:48:12.685Z,25.42
2023-02-16T03:50:39.023Z,28.00
2023-02-16T03:53:08.666Z,30.33
2023-02-16T03:55:46.230Z,28.05
2023-02-16T03:58:14.574Z,28.15
2023-02-16T04:00:41.065Z,27.13
2023-02-16T04:03:08.857Z,30.10
2023-02-16T04:05:35.253Z,28.92
2023-02-16T04:08:01.615Z,28.52
2023-02-16T04:10:28.100Z,25.88
2023-02-16T04:12:54.479Z,27.58
2023-02-16T04:15:22.241Z,30.63
2023-02-16T04:17:48.861Z,27.20
2023-02-16T04:20:17.437Z,26.85
2023-02-16T04:22:44.085Z,29.13
2023-02-16T04:25:10.912Z,29.88
2023-02-16T04:27:40.090Z,27.67
2023-02-16T04:30:07.461Z,28.98
2023-02-16T04:32:33.857Z,33.40
2023-02-16T04:35:00.233Z,28.42
2023-02-16T04:37:26.616Z,27.02
2023-02-16T04:39:52.984Z,31.17
2023-02-16T04:42:19.350Z,33.60
2023-02-16T04:44:45.738Z,30.58
2023-02-16T04:47:12.187Z,33.60
2023-02-16T04:49:38.534Z,32.28
2023-02-16T04:52:05.405Z,28.33
2023-02-16T04:54:32.560Z,40.05
2023-02-16T04:56:59.223Z,38.53
2023-02-16T04:59:26.008Z,37.67
2023-02-16T05:01:53.332Z,38.88
2023-02-16T05:04:19.809Z,43.33
2023-02-16T05:06:46.204Z,36.38
2023-02-16T05:09:12.708Z,35.10
2023-02-16T05:11:57.496Z,36.03
2023-02-16T05:14:47.016Z,33.60
2023-02-16T05:17:13.317Z,35.70
2023-02-16T05:19:40.931Z,37.00
2023-02-16T05:22:07.997Z,39.85
2023-02-16T05:24:34.826Z,32.28
2023-02-16T05:27:02.040Z,34.20
2023-02-16T05:29:28.516Z,34.20
2023-02-16T05:31:55.123Z,37.78
2023-02-16T05:34:21.489Z,36.03
2023-02-16T05:36:47.952Z,36.83
2023-02-16T05:39:14.640Z,35.78
2023-02-16T05:41:41.080Z,36.00
2023-02-16T05:44:08.063Z,34.70
2023-02-16T05:46:36.174Z,34.35
2023-02-16T05:49:03.032Z,41.05
2023-02-16T05:51:29.427Z,33.47
2023-02-16T05:53:56.039Z,33.53
2023-02-16T05:56:22.596Z,33.78
2023-02-16T05:58:49.072Z,41.17
2023-02-16T06:01:15.876Z,35.30
2023-02-16T06:03:42.518Z,32.00
2023-02-16T06:06:09.752Z,33.58
2023-02-16T06:08:36.732Z,37.80
2023-02-16T06:11:03.482Z,37.83
2023-02-16T06:13:29.979Z,32.65
2023-02-16T06:15:57.368Z,39.00
2023-02-16T06:18:24.603Z,34.10
2023-02-16T06:20:51.131Z,33.20
2023-02-16T06:23:17.573Z,32.63
2023-02-16T06:25:44.700Z,33.22
2023-02-16T06:28:12.260Z,38.63
2023-02-16T06:30:38.624Z,32.72
2023-02-16T06:33:05.143Z,34.05
2023-02-16T06:35:31.499Z,34.00
2023-02-16T06:37:59.179Z,38.33
2023-02-16T06:40:26.001Z,36.88
2023-02-16T06:42:52.444Z,34.53
2023-02-16T06:45:19.288Z,33.28
2023-02-16T06:47:45.742Z,44.67
2023-02-16T06:50:14.439Z,37.70
2023-02-16T06:52:40.909Z,40.35
2023-02-16T06:55:07.515Z,40.20
2023-02-16T06:57:34.059Z,40.80
2023-02-16T07:00:00.425Z,45.20
2023-02-16T07:02:26.839Z,45.97
2023-02-16T07:04:54.458Z,44.00
2023-02-16T07:07:23.973Z,48.70
2023-02-16T07:09:50.579Z,46.58
2023-02-16T07:12:16.937Z,49.63
2023-02-16T07:14:44.316Z,48.95
2023-02-16T07:17:10.778Z,52.17
2023-02-16T07:19:37.246Z,49.65
2023-02-16T07:22:03.967Z,49.97
2023-02-16T07:24:30.347Z,44.50
2023-02-16T07:26:56.735Z,45.90
2023-02-16T07:29:23.461Z,42.90
2023-02-16T07:31:50.936Z,49.05
2023-02-16T07:34:17.452Z,41.30
2023-02-16T07:36:45.152Z,43.20
2023-02-16T07:39:12.077Z,41.55
2023-02-16T07:41:38.495Z,45.33
2023-02-16T07:44:05.006Z,42.65
2023-02-16T07:46:33.302Z,38.05
2023-02-16T07:48:59.891Z,31.90
2023-02-16T07:51:27.383Z,34.05
2023-02-16T07:53:53.824Z,28.90
2023-02-16T07:56:21.437Z,28.77
2023-02-16T07:58:47.984Z,29.40
2023-02-16T08:01:15.933Z,25.50
2023-02-16T08:03:42.551Z,30.17
2023-02-16T08:06:09.189Z,25.45
2023-02-16T08:08:36.168Z,26.95
2023-02-16T08:11:09.835Z,22.30
2023-02-16T08:13:36.316Z,23.30
2023-02-16T08:16:02.900Z,26.48
2023-02-16T08:18:30.376Z,22.38
2023-02-16T08:21:04.321Z,28.77
2023-02-16T08:23:31.442Z,20.35
2023-02-16T08:25:59.244Z,22.52
2023-02-16T08:28:28.727Z,24.42
2023-02-16T08:30:55.429Z,22.73
2023-02-16T08:33:21.898Z,22.90
2023-02-16T08:35:48.511Z,26.20
2023-02-16T08:38:17.306Z,21.85
2023-02-16T08:40:49.097Z,29.00
2023-02-16T08:43:15.526Z,26.08
2023-02-16T08:45:48.589Z,25.00
2023-02-16T08:48:15.281Z,24.38
2023-02-16T08:50:47.113Z,23.30
2023-02-16T08:53:14.206Z,29.23
2023-02-16T08:55:40.636Z,24.27
2023-02-16T08:58:07.132Z,22.40
2023-02-16T09:00:37.746Z,27.30
2023-02-16T09:03:04.391Z,24.85
2023-02-16T09:05:31.514Z,24.55
2023-02-16T09:07:58.562Z,25.17
2023-02-16T09:10:25.070Z,23.67
2023-02-16T09:12:51.448Z,29.15
2023-02-16T09:15:18.006Z,23.70
2023-02-16T09:17:44.983Z,29.52
2023-02-16T09:20:12.276Z,28.70
2023-02-16T09:22:39.120Z,27.15
2023-02-16T09:25:07.687Z,27.30
2023-02-16T09:27:34.739Z,26.58
2023-02-16T09:30:01.115Z,26.20
2023-02-16T09:32:30.665Z,27.08
2023-02-16T09:34:57.032Z,24.50
2023-02-16T09:37:26.152Z,22.65
2023-02-16T09:39:52.515Z,29.17
2023-02-16T09:42:28.552Z,22.40
2023-02-16T09:45:04.245Z,21.80
2023-02-16T09:49:59.303Z,25.92
2023-02-16T09:52:28.478Z,27.83
2023-02-16T09:54:56.164Z,25.70
2023-02-16T09:57:27.428Z,26.48
2023-02-16T10:00:13.013Z,27.08
2023-02-16T10:02:39.490Z,24.85
2023-02-16T10:05:20.986Z,26.52
2023-02-16T10:08:05.738Z,27.38
2023-02-16T10:10:40.283Z,27.30
2023-02-16T10:13:11.511Z,24.27
2023-02-16T10:15:38.170Z,26.73
2023-02-16T10:18:24.941Z,22.80
2023-02-16T10:20:52.716Z,25.70
2023-02-16T10:23:38.088Z,25.08
2023-02-16T10:26:12.428Z,24.33
2023-02-16T10:28:47.679Z,23.05
2023-02-16T10:31:34.210Z,25.20
2023-02-16T10:34:03.970Z,24.85
2023-02-16T10:36:49.952Z,22.67
2023-02-16T10:39:18.857Z,27.83
2023-02-16T10:41:46.961Z,23.98
2023-02-16T10:44:14.896Z,23.45
2023-02-16T10:46:43.920Z,23.02
2023-02-16T10:49:14.364Z,25.00
2023-02-16T10:51:42.660Z,23.02
2023-02-16T10:54:15.192Z,20.88
2023-02-16T10:56:41.620Z,23.58
2023-02-16T10:59:13.588Z,23.65
2023-02-16T11:01:43.321Z,23.52
2023-02-16T11:04:29.215Z,20.98
2023-02-16T11:07:24.863Z,19.85
2023-02-16T11:09:55.605Z,21.77
2023-02-16T11:12:27.193Z,18.80
2023-02-16T11:14:55.269Z,20.70
2023-02-16T11:17:22.545Z,21.83
2023-02-16T11:19:54.076Z,20.42
2023-02-16T11:22:32.411Z,22.35
2023-02-16T11:25:17.480Z,21.95
2023-02-16T11:27:50.116Z,20.33
2023-02-16T11:30:22.562Z,21.13
2023-02-16T11:32:50.682Z,20.55
2023-02-16T11:35:17.811Z,21.77
2023-02-16T11:37:44.221Z,21.88
2023-02-16T11:40:22.316Z,19.52
2023-02-16T11:42:50.343Z,21.45
2023-02-16T11:45:22.864Z,21.90
2023-02-16T11:47:53.219Z,19.70
2023-02-16T11:50:21.427Z,22.60
2023-02-16T11:52:49.657Z,24.60
2023-02-16T11:55:33.296Z,18.92
2023-02-16T11:58:18.632Z,21.50
2023-02-16T12:00:47.991Z,20.60
2023-02-16T12:03:25.056Z,19.15
2023-02-16T12:06:10.130Z,19.23
2023-02-16T12:08:52.651Z,22.42
2023-02-16T12:11:19.518Z,21.52
2023-02-16T12:13:51.094Z,23.23
2023-02-16T12:16:38.229Z,21.52
2023-02-16T12:19:04.626Z,22.02
2023-02-16T12:21:45.471Z,22.70
2023-02-16T12:24:14.598Z,25.50
2023-02-16T12:26:52.008Z,25.40
2023-02-16T12:29:20.706Z,25.52
2023-02-16T12:31:59.115Z,23.38
2023-02-16T12:34:33.402Z,23.02
2023-02-16T12:37:22.811Z,23.60
2023-02-16T12:39:58.552Z,26.13
2023-02-16T12:42:25.152Z,26.52
2023-02-16T12:44:54.254Z,23.02
2023-02-16T12:47:29.879Z,22.67
2023-02-16T12:54:57.495Z,22.00
2023-02-16T12:57:26.092Z,25.30
2023-02-16T13:00:03.380Z,21.70
2023-02-16T13:02:40.596Z,26.88
2023-02-16T13:05:21.195Z,23.15
2023-02-16T13:07:50.132Z,26.27
2023-02-16T13:10:22.482Z,24.42
2023-02-16T13:12:55.233Z,27.65
2023-02-16T13:15:34.201Z,27.33
2023-02-16T13:18:18.742Z,24.92
2023-02-16T13:20:48.302Z,24.23
2023-02-16T13:23:28.709Z,25.40
2023-02-16T13:26:11.307Z,23.92
2023-02-16T13:28:41.270Z,25.98
2023-02-16T13:31:15.435Z,29.75
2023-02-16T13:33:48.630Z,34.63
2023-02-16T13:36:19.124Z,27.33
2023-02-16T13:39:04.852Z,29.67
2023-02-16T13:41:41.708Z,27.92
2023-02-16T13:44:12.208Z,30.52
2023-02-16T13:46:53.824Z,32.58
2023-02-16T13:49:29.063Z,32.33
2023-02-16T13:51:55.607Z,31.50
2023-02-16T13:54:26.897Z,28.33
2023-02-16T13:56:53.366Z,30.73
2023-02-16T13:59:19.744Z,29.80
2023-02-16T14:01:46.823Z,29.30
2023-02-16T14:04:22.235Z,31.50
2023-02-16T14:06:50.288Z,37.35
2023-02-16T14:09:16.641Z,27.33
2023-02-16T14:11:56.157Z,29.00
2023-02-16T14:14:27.019Z,31.13
2023-02-16T14:16:54.625Z,30.77
2023-02-16T14:19:25.957Z,27.10
2023-02-16T14:21:52.496Z,26.73
2023-02-16T14:24:38.609Z,28.55
2023-02-16T14:29:38.604Z,28.13
2023-02-16T14:32:16.444Z,29.27
2023-02-16T14:35:07.253Z,28.15
2023-02-16T14:37:39.371Z,26.27
2023-02-16T14:40:13.449Z,26.05
2023-02-16T14:42:44.279Z,26.52
2023-02-16T14:45:10.685Z,28.73
2023-02-16T14:47:44.520Z,24.83
2023-02-16T14:50:22.935Z,27.30
2023-02-16T14:52:58.392Z,29.10
2023-02-16T14:55:40.814Z,30.35
2023-02-16T14:58:13.393Z,25.70
2023-02-16T15:00:45.946Z,31.83
2023-02-16T15:03:16.659Z,24.77
2023-02-16T15:05:43.453Z,25.77
2023-02-16T15:08:17.513Z,29.58
2023-02-16T15:10:46.720Z,31.42
2023-02-16T15:13:30.125Z,28.60
2023-02-16T15:15:58.920Z,23.35
2023-02-16T15:18:27.785Z,25.00
2023-02-16T15:20:55.824Z,29.10
2023-02-16T15:23:23.721Z,27.23
2023-02-16T15:25:58.740Z,23.88
2023-02-16T15:28:26.824Z,28.40
2023-02-16T15:30:53.358Z,26.27
2023-02-16T15:33:25.934Z,22.02
2023-02-16T15:36:04.031Z,24.58
2023-02-16T15:38:32.000Z,25.95
2023-02-16T15:41:00.202Z,30.00
2023-02-16T15:43:30.978Z,25.20
2023-02-16T15:45:58.286Z,27.52
2023-02-16T15:48:25.002Z,26.40
2023-02-16T15:50:55.936Z,29.70
2023-02-16T15:53:23.825Z,27.15
2023-02-16T15:55:51.476Z,25.50
2023-02-16T15:58:18.084Z,26.65
2023-02-16T16:00:45.293Z,25.60
2023-02-16T16:03:17.004Z,24.77
2023-02-16T16:05:52.905Z,26.17
2023-02-16T16:08:22.659Z,25.15
2023-02-16T16:10:49.090Z,26.70
2023-02-16T16:13:19.049Z,25.70
2023-02-16T16:15:47.252Z,22.63
2023-02-16T16:18:32.334Z,23.40
2023-02-16T16:20:59.958Z,21.17
2023-02-16T16:23:27.066Z,21.13
2023-02-16T16:25:53.781Z,23.52
2023-02-16T16:28:26.484Z,24.65
2023-02-16T16:31:16.309Z,24.58
2023-02-16T16:33:52.148Z,24.52
2023-02-16T16:36:18.561Z,28.08
2023-02-16T16:38:45.838Z,22.25
2023-02-16T16:41:25.142Z,23.90
2023-02-16T16:43:57.647Z,23.48
2023-02-16T16:46:25.292Z,23.42
2023-02-16T16:48:53.631Z,20.85
2023-02-16T16:51:31.189Z,24.10
2023-02-16T16:54:01.664Z,22.17
2023-02-16T16:56:28.587Z,27.77
2023-02-16T16:58:59.737Z,23.25
2023-02-16T17:01:27.394Z,24.95
2023-02-16T17:03:53.955Z,24.88
2023-02-16T17:06:20.907Z,25.73
2023-02-16T17:08:47.344Z,22.92
2023-02-16T17:11:20.796Z,22.75
2023-02-16T17:13:47.353Z,24.42
2023-02-16T17:16:15.673Z,22.05
2023-02-16T17:18:42.072Z,23.80
2023-02-16T17:21:10.588Z,23.10
2023-02-16T17:23:45.145Z,27.10
2023-02-16T17:26:16.832Z,28.08
2023-02-16T17:28:43.217Z,25.25
2023-02-16T17:31:10.079Z,29.10
2023-02-16T17:33:36.427Z,27.73
2023-02-16T17:36:04.388Z,28.73
2023-02-16T17:38:30.903Z,24.88
2023-02-16T17:40:57.577Z,28.80
2023-02-16T17:43:24.764Z,28.98
2023-02-16T17:45:51.708Z,30.98
2023-02-16T17:48:27.469Z,29.75
2023-02-16T17:50:54.688Z,29.52
2023-02-16T17:53:22.168Z,29.85
2023-02-16T17:55:49.508Z,30.08
2023-02-16T17:58:16.155Z,32.35
2023-02-16T18:00:42.794Z,31.08
2023-02-16T18:03:09.358Z,31.95
2023-02-16T18:05:36.138Z,33.78
2023-02-16T18:08:03.202Z,33.90
2023-02-16T18:10:40.557Z,31.15
2023-02-16T18:13:07.604Z,35.15
2023-02-16T18:15:34.434Z,32.72
2023-02-16T18:18:00.991Z,36.30
2023-02-16T18:20:27.596Z,33.95
2023-02-16T18:22:53.971Z,34.75
2023-02-16T18:25:20.357Z,33.85
2023-02-16T18:27:46.761Z,32.88
2023-02-16T18:30:14.037Z,33.08
2023-02-16T18:32:41.914Z,35.10
2023-02-16T18:35:09.282Z,36.55
2023-02-16T18:37:35.632Z,35.50
2023-02-16T18:40:02.259Z,34.50
2023-02-16T18:42:28.571Z,37.08
2023-02-16T18:44:54.966Z,33.95
2023-02-16T18:47:21.432Z,36.72
2023-02-16T18:49:49.542Z,33.28
2023-02-16T18:52:16.418Z,34.03
2023-02-16T18:54:42.789Z,35.08
2023-02-16T18:57:11.107Z,35.25
2023-02-16T18:59:37.446Z,34.72
2023-02-16T19:02:03.955Z,34.25
2023-02-16T19:04:30.700Z,31.80
2023-02-16T19:06:58.351Z,35.05
2023-02-16T19:09:25.388Z,36.92
2023-02-16T19:11:51.787Z,35.83
2023-02-16T19:14:18.862Z,32.28
2023-02-16T19:16:45.701Z,32.15
2023-02-16T19:19:12.515Z,32.50
2023-02-16T19:21:40.133Z,35.85
2023-02-16T19:24:07.182Z,35.33
2023-02-16T19:26:33.788Z,34.33
2023-02-16T19:29:00.294Z,31.38
2023-02-16T19:31:31.190Z,34.92
2023-02-16T19:33:58.464Z,35.20
2023-02-16T19:36:26.123Z,35.45
2023-02-16T19:38:53.379Z,39.10
2023-02-16T19:41:25.737Z,36.50
2023-02-16T19:43:52.290Z,35.42
2023-02-16T19:46:18.807Z,34.45
2023-02-16T19:48:46.104Z,41.03
2023-02-16T19:51:12.660Z,37.53
2023-02-16T19:53:39.525Z,36.28
2023-02-16T19:56:11.278Z,37.55
2023-02-16T19:58:37.690Z,38.05
2023-02-16T20:01:08.034Z,37.33
2023-02-16T20:03:34.407Z,38.08
2023-02-16T20:06:00.855Z,36.17
2023-02-16T20:08:27.249Z,42.25
2023-02-16T20:10:53.682Z,43.22
2023-02-16T20:13:20.114Z,38.05
2023-02-16T20:15:46.519Z,41.10
2023-02-16T20:18:12.976Z,33.65
2023-02-16T20:20:39.345Z,33.22
2023-02-16T20:23:07.425Z,33.40
2023-02-16T20:25:33.782Z,35.90
2023-02-16T20:28:00.113Z,32.63
2023-02-16T20:30:27.486Z,32.40
2023-02-16T20:32:53.877Z,32.72
2023-02-16T20:35:20.364Z,34.00
2023-02-16T20:37:46.750Z,37.08
2023-02-16T20:40:13.289Z,31.58
2023-02-16T20:42:39.721Z,35.75
2023-02-16T20:45:06.568Z,32.72
2023-02-16T20:47:32.938Z,34.97
2023-02-16T20:49:59.325Z,37.28
2023-02-16T20:52:25.718Z,30.27
2023-02-16T20:54:52.114Z,31.48
2023-02-16T20:57:26.688Z,28.02
2023-02-16T20:59:53.682Z,29.20
2023-02-16T21:02:20.136Z,29.60
2023-02-16T21:04:47.451Z,26.90
2023-02-16T21:07:13.808Z,34.22
2023-02-16T21:09:40.139Z,30.35
2023-02-16T21:12:06.559Z,36.45
2023-02-16T21:14:32.935Z,29.10
2023-02-16T21:16:59.355Z,32.10
2023-02-16T21:19:25.766Z,33.35
2023-02-16T21:21:52.297Z,28.65
2023-02-16T21:24:18.988Z,33.53
2023-02-16T21:26:45.395Z,29.75
2023-02-16T21:29:11.839Z,27.98
2023-02-16T21:31:38.492Z,26.35
2023-02-16T21:34:04.907Z,27.48
2023-02-16T21:36:31.362Z,26.23
2023-02-16T21:38:57.681Z,29.85
2023-02-16T21:41:25.716Z,29.77
2023-02-16T21:43:53.245Z,28.23
2023-02-16T21:46:19.734Z,28.13
2023-02-16T21:48:48.943Z,32.17
2023-02-16T21:51:16.624Z,28.38
2023-02-16T21:53:43.655Z,24.50
2023-02-16T21:56:19.846Z,24.65
2023-02-16T21:58:46.827Z,21.67
2023-02-16T22:01:13.777Z,24.55
2023-02-16T22:03:40.477Z,23.13
2023-02-16T22:06:07.682Z,21.55
2023-02-16T22:08:34.949Z,27.67
2023-02-16T22:11:08.273Z,25.67
2023-02-16T22:13:34.894Z,21.85
2023-02-16T22:16:01.407Z,23.13
2023-02-16T22:18:27.802Z,23.10
2023-02-16T22:20:54.256Z,22.42
2023-02-16T22:23:20.667Z,24.08
2023-02-16T22:25:47.036Z,27.27
2023-02-16T22:28:13.395Z,26.15
2023-02-16T22:30:39.776Z,21.83
2023-02-16T22:33:06.105Z,26.27
2023-02-16T22:35:33.163Z,21.42
2023-02-16T22:37:59.577Z,22.23
2023-02-16T22:40:25.888Z,22.98
2023-02-16T22:42:52.224Z,21.80
2023-02-16T22:45:18.626Z,21.83
2023-02-16T22:47:44.915Z,24.42
2023-02-16T22:50:11.483Z,22.70
2023-02-16T22:52:38.181Z,26.17
2023-02-16T22:55:05.363Z,20.95
2023-02-16T22:57:35.420Z,20.85
2023-02-16T23:00:02.014Z,22.85
2023-02-16T23:02:28.641Z,25.33
2023-02-16T23:04:56.072Z,22.58
2023-02-16T23:07:22.440Z,25.67
2023-02-16T23:09:48.827Z,23.92
2023-02-16T23:12:16.385Z,27.98
2023-02-16T23:14:42.762Z,21.55
2023-02-16T23:17:09.121Z,21.73
2023-02-16T23:19:35.573Z,25.67
2023-02-16T23:22:02.021Z,20.50
2023-02-16T23:24:28.411Z,20.58
2023-02-16T23:26:55.112Z,21.23
2023-02-16T23:29:21.543Z,23.92
2023-02-16T23:31:48.984Z,25.80
2023-02-16T23:34:15.885Z,22.88
2023-02-16T23:36:42.566Z,27.38
2023-02-16T23:39:10.602Z,21.73
2023-02-16T23:41:37.304Z,21.02
2023-02-16T23:44:04.421Z,24.33
2023-02-16T23:46:31.158Z,23.77
2023-02-16T23:48:57.737Z,22.92
2023-02-16T23:51:24.352Z,26.00
2023-02-16T23:53:50.764Z,27.23
2023-02-16T23:56:27.330Z,24.33
2023-02-16T23:58:56.723Z,26.27
